Browerville, Minnesota
Current Conditions -  °F | °C
As of 10:35 AM on Monday 26 Jan 2015 (Local Time) from K14Y Reporting Station
Overcast Overcast  
Wind Chill: 26°   Ceiling: 3400
Heat Index: 34°   Visibility: 10mi
Dew Point: 30°   Wind: 10mph
Humidity: 87%   Direction: 260°W
Pressure: 29.72"   Gusts: NA
Location:  46.09°N, 94.87°W
Report Text: K14Y 261635Z AUTO 26009KT 10SM BKN034 OVC044 01/M01 A2972 RMK AO2
Loading
Personal Weather Stations






























Interactive Weather Map New forecast layout! Learn more

10-Day Weather Forecast

Advertisements
Track Severe Weather on mobile